Time;durP1;ratioP1;P1;durP2;ratioP2;P2;SDS_P1;SDS_P2;PMS_P1;PMS_P2;Temp;Humidity;BMP_temperature;BMP_pressure;BME280_temperature;BME280_humidity;BME280_pressure;Samples;Min_cycle;Max_cycle;Signal;HPM_P1;HPM_P2
2022/03/15 00:01:54;;;;;;;;;;;;;;;4.18;37.82;101639.09;4386823;32;33101;-76
2022/03/15 00:04:23;;;;;;;;;;;;;;;4.29;38.14;101632.50;4387920;32;35044;-76
2022/03/15 00:06:50;;;;;;;;;;;;;;;4.27;38.42;101622.94;4390909;32;33700;-77
2022/03/15 00:09:17;;;;;;;;;;;;;;;4.39;37.68;101625.06;4382304;32;32796;-77
2022/03/15 00:11:47;;;;;;;;;;;;;;;4.40;37.64;101617.13;4387673;32;31133;-77
2022/03/15 00:14:15;;;;;;;;;;;;;;;4.49;37.21;101618.50;4395154;32;33423;-77
2022/03/15 00:16:44;;;;;;;;;;;;;;;4.43;37.22;101624.91;4406405;32;36211;-77
2022/03/15 00:19:12;;;;;;;;;;;;;;;4.29;37.48;101621.09;4382942;32;33322;-77
2022/03/15 00:21:40;;;;;;;;;;;;;;;4.15;37.77;101618.16;4387036;32;33141;-77
2022/03/15 00:24:07;;;;;;;;;;;;;;;4.35;37.45;101610.31;4376119;32;32748;-77
2022/03/15 00:26:35;;;;;;;;;;;;;;;4.40;37.19;101614.50;4402998;32;35581;-76
2022/03/15 00:29:05;;;;;;;;;;;;;;;3.94;38.74;101598.78;4389952;32;34671;-77
2022/03/15 00:31:34;;;;;;;;;;;;;;;3.95;39.08;101600.50;4393661;32;33326;-76
2022/03/15 00:34:02;;;;;;;;;;;;;;;4.11;39.18;101600.75;4362200;32;33432;-76
2022/03/15 00:36:30;;;;;;;;;;;;;;;4.27;38.70;101599.22;4399700;32;35273;-77
2022/03/15 00:38:58;;;;;;;;;;;;;;;4.33;38.10;101599.84;4403037;32;35256;-77
2022/03/15 00:41:25;;;;;;;;;;;;;;;4.27;38.02;101600.06;4399613;32;33264;-77
2022/03/15 00:43:53;;;;;;;;;;;;;;;4.21;38.18;101605.59;4402548;32;34182;-76
2022/03/15 00:46:23;;;;;;;;;;;;;;;3.97;38.83;101606.56;4397965;32;35615;-77
2022/03/15 00:48:51;;;;;;;;;;;;;;;3.95;38.84;101603.13;4387952;32;34357;-77
2022/03/15 00:51:19;;;;;;;;;;;;;;;3.94;39.25;101606.69;4401802;32;33432;-77
2022/03/15 00:53:47;;;;;;;;;;;;;;;3.97;38.86;101608.34;4386665;32;34064;-77
2022/03/15 00:56:15;;;;;;;;;;;;;;;3.76;40.09;101614.41;4382479;32;33625;-77
2022/03/15 00:58:42;;;;;;;;;;;;;;;3.85;39.36;101603.53;4402459;32;34273;-76
2022/03/15 01:01:10;;;;;;;;;;;;;;;3.97;38.79;101597.81;4388824;32;34884;-77
2022/03/15 01:03:38;;;;;;;;;;;;;;;4.15;38.53;101594.47;4393041;32;33650;-77
2022/03/15 01:06:06;;;;;;;;;;;;;;;4.01;39.62;101591.50;4410697;32;35490;-77
2022/03/15 01:08:34;;;;;;;;;;;;;;;4.15;38.70;101592.66;4411513;32;35397;-77
2022/03/15 01:11:05;;;;;;;;;;;;;;;3.94;39.39;101582.09;4398947;32;33376;-76
2022/03/15 01:13:32;;;;;;;;;;;;;;;4.07;38.85;101571.03;4398405;32;33845;-76
2022/03/15 01:16:00;;;;;;;;;;;;;;;4.06;38.91;101568.47;4389650;32;34733;-77
2022/03/15 01:18:30;;;;;;;;;;;;;;;4.16;38.68;101575.94;4400395;32;34334;-77
2022/03/15 01:20:57;;;;;;;;;;;;;;;4.09;38.60;101566.59;4399103;32;32538;-77
2022/03/15 01:23:27;;;;;;;;;;;;;;;4.16;38.55;101564.56;4401173;32;33379;-76
2022/03/15 01:25:55;;;;;;;;;;;;;;;4.13;38.56;101562.03;4401333;32;34279;-77
2022/03/15 01:28:24;;;;;;;;;;;;;;;4.21;38.28;101558.19;4388400;32;34711;-76
2022/03/15 01:30:52;;;;;;;;;;;;;;;4.12;38.68;101555.94;4400147;32;33145;-77
2022/03/15 01:33:21;;;;;;;;;;;;;;;4.19;38.47;101551.25;4401271;32;34993;-77
2022/03/15 01:35:49;;;;;;;;;;;;;;;4.09;38.49;101553.44;4411340;32;35626;-77
2022/03/15 01:38:17;;;;;;;;;;;;;;;4.08;38.60;101554.31;4396065;32;35219;-76
2022/03/15 01:40:45;;;;;;;;;;;;;;;4.14;38.54;101555.87;4393574;32;33373;-77
2022/03/15 01:43:13;;;;;;;;;;;;;;;4.10;38.50;101560.41;4380885;32;32797;-77
2022/03/15 01:45:40;;;;;;;;;;;;;;;4.06;39.23;101565.84;4378561;32;34414;-77
2022/03/15 01:48:09;;;;;;;;;;;;;;;4.07;38.99;101557.03;4393221;32;34262;-76
2022/03/15 01:50:36;;;;;;;;;;;;;;;4.01;38.97;101559.91;4410132;32;32750;-77
2022/03/15 01:53:06;;;;;;;;;;;;;;;4.05;38.89;101569.41;4395462;32;33319;-77
2022/03/15 01:55:34;;;;;;;;;;;;;;;4.12;38.63;101581.38;4390998;32;35995;-77
2022/03/15 01:58:02;;;;;;;;;;;;;;;4.08;38.59;101570.13;4403514;32;34844;-77
2022/03/15 02:00:31;;;;;;;;;;;;;;;4.06;38.67;101576.37;4400455;32;33510;-77
2022/03/15 02:03:02;;;;;;;;;;;;;;;4.01;38.69;101571.31;4396342;32;32397;-77
2022/03/15 02:05:30;;;;;;;;;;;;;;;4.01;38.67;101571.31;4408679;32;34334;-77
2022/03/15 02:08:06;;;;;;;;;;;;;;;3.88;39.00;101572.69;4395909;32;34495;-76
2022/03/15 02:10:35;;;;;;;;;;;;;;;3.93;39.13;101572.50;4399471;32;35063;-76
2022/03/15 02:13:02;;;;;;;;;;;;;;;4.00;38.84;101564.31;4387793;32;32383;-76
2022/03/15 02:15:30;;;;;;;;;;;;;;;4.03;38.78;101568.59;4399604;32;35183;-76
2022/03/15 02:17:58;;;;;;;;;;;;;;;3.79;39.42;101556.41;4387604;32;35340;-76
2022/03/15 02:20:26;;;;;;;;;;;;;;;3.87;39.39;101556.97;4412196;32;33421;-77
2022/03/15 02:22:54;;;;;;;;;;;;;;;3.91;39.28;101559.41;4390992;32;33780;-77
2022/03/15 02:25:22;;;;;;;;;;;;;;;3.85;39.90;101562.28;4386682;32;35915;-76
2022/03/15 02:27:49;;;;;;;;;;;;;;;3.88;39.46;101562.16;4393679;32;34791;-76
2022/03/15 02:30:17;;;;;;;;;;;;;;;3.95;38.97;101554.84;4386257;32;33829;-76
2022/03/15 02:32:47;;;;;;;;;;;;;;;3.86;39.22;101557.88;4401377;32;34231;-76
2022/03/15 02:35:15;;;;;;;;;;;;;;;3.93;39.09;101565.47;4376486;32;34648;-76
2022/03/15 02:37:43;;;;;;;;;;;;;;;3.88;39.36;101575.31;4385806;32;34931;-76
2022/03/15 02:40:11;;;;;;;;;;;;;;;3.91;39.12;101576.97;4378093;32;34319;-76
2022/03/15 02:42:40;;;;;;;;;;;;;;;3.82;39.18;101570.31;4393732;32;33604;-76
2022/03/15 02:45:08;;;;;;;;;;;;;;;3.71;39.64;101569.84;4399236;32;33656;-76
2022/03/15 02:47:36;;;;;;;;;;;;;;;3.48;40.40;101580.38;4410399;32;33466;-76
2022/03/15 02:50:04;;;;;;;;;;;;;;;3.54;40.57;101584.56;4394236;32;33055;-77
2022/03/15 02:52:32;;;;;;;;;;;;;;;3.38;41.05;101584.25;4400945;32;33775;-76
2022/03/15 02:55:00;;;;;;;;;;;;;;;3.46;40.68;101578.72;4373905;32;33586;-76
2022/03/15 02:57:28;;;;;;;;;;;;;;;3.37;40.69;101585.19;4398682;32;32715;-76
2022/03/15 02:59:57;;;;;;;;;;;;;;;3.54;40.09;101574.91;4373471;32;31576;-76
2022/03/15 03:02:25;;;;;;;;;;;;;;;3.53;40.05;101575.81;4392020;32;33654;-76
2022/03/15 03:04:53;;;;;;;;;;;;;;;3.56;40.07;101578.31;4406405;32;35770;-76
2022/03/15 03:07:21;;;;;;;;;;;;;;;3.53;39.87;101572.31;4400504;32;34611;-76
2022/03/15 03:09:49;;;;;;;;;;;;;;;3.52;39.80;101571.44;4377879;32;33051;-76
2022/03/15 03:12:17;;;;;;;;;;;;;;;3.53;39.90;101567.94;4381297;32;32507;-76
2022/03/15 03:14:47;;;;;;;;;;;;;;;3.52;39.92;101571.44;4411610;32;35032;-76
2022/03/15 03:17:15;;;;;;;;;;;;;;;3.52;39.73;101567.97;4386288;32;35332;-77
2022/03/15 03:19:44;;;;;;;;;;;;;;;3.47;39.69;101575.16;4384688;32;33427;-77
2022/03/15 03:22:12;;;;;;;;;;;;;;;3.52;39.73;101562.72;4383432;32;33543;-76
2022/03/15 03:24:40;;;;;;;;;;;;;;;3.39;40.21;101572.81;4406651;32;36190;-76
2022/03/15 03:27:11;;;;;;;;;;;;;;;3.47;39.87;101570.78;4393189;32;34155;-76
2022/03/15 03:29:40;;;;;;;;;;;;;;;3.31;40.48;101577.50;4409228;32;32663;-76
2022/03/15 03:32:09;;;;;;;;;;;;;;;3.31;40.45;101563.50;4408758;32;33499;-76
2022/03/15 03:34:37;;;;;;;;;;;;;;;3.31;40.57;101560.88;4413701;32;35230;-76
2022/03/15 03:37:05;;;;;;;;;;;;;;;3.46;40.31;101562.94;4376569;32;33172;-76
2022/03/15 03:39:33;;;;;;;;;;;;;;;3.43;40.72;101571.78;4389071;32;33587;-76
2022/03/15 03:42:01;;;;;;;;;;;;;;;3.26;41.44;101574.19;4392304;32;32560;-76
2022/03/15 03:44:28;;;;;;;;;;;;;;;3.33;40.94;101578.28;4397864;32;35012;-76
2022/03/15 03:46:56;;;;;;;;;;;;;;;3.30;40.67;101582.84;4405358;32;34492;-76
2022/03/15 03:49:24;;;;;;;;;;;;;;;3.25;40.66;101579.50;4397025;32;33863;-77
2022/03/15 03:51:52;;;;;;;;;;;;;;;3.23;40.61;101576.09;4398366;32;34745;-76
2022/03/15 03:54:20;;;;;;;;;;;;;;;3.23;40.53;101581.34;4398555;32;35337;-76
2022/03/15 03:56:47;;;;;;;;;;;;;;;3.18;40.67;101586.75;4400399;32;34598;-76
2022/03/15 03:59:15;;;;;;;;;;;;;;;3.15;40.98;101591.28;4384613;32;33161;-76
2022/03/15 04:01:44;;;;;;;;;;;;;;;3.13;40.73;101587.84;4384821;32;33963;-76
2022/03/15 04:04:12;;;;;;;;;;;;;;;3.10;40.79;101586.19;4397178;32;35352;-76
2022/03/15 04:06:40;;;;;;;;;;;;;;;2.73;42.16;101587.47;4384111;32;35148;-76
2022/03/15 04:09:11;;;;;;;;;;;;;;;2.76;43.09;101575.09;4397642;32;34217;-76
2022/03/15 04:11:42;;;;;;;;;;;;;;;2.80;42.51;101583.75;4396328;32;33648;-76
2022/03/15 04:14:12;;;;;;;;;;;;;;;2.81;42.46;101581.06;4396145;32;34383;-76
2022/03/15 04:16:41;;;;;;;;;;;;;;;2.83;42.42;101579.25;4382876;32;34389;-76
2022/03/15 04:19:13;;;;;;;;;;;;;;;2.66;42.91;101582.50;4397498;32;33821;-76
2022/03/15 04:21:40;;;;;;;;;;;;;;;2.96;41.91;101582.31;4383805;32;33987;-76
2022/03/15 04:24:08;;;;;;;;;;;;;;;2.91;41.53;101581.59;4383596;32;34716;-76
2022/03/15 04:26:35;;;;;;;;;;;;;;;2.86;41.48;101584.38;4382811;32;34451;-76
2022/03/15 04:29:03;;;;;;;;;;;;;;;2.83;41.61;101583.63;4383127;32;33278;-77
2022/03/15 04:31:31;;;;;;;;;;;;;;;2.73;42.29;101592.75;4383816;32;33968;-76
2022/03/15 04:33:58;;;;;;;;;;;;;;;2.86;41.72;101591.44;4396784;32;35304;-76
2022/03/15 04:36:25;;;;;;;;;;;;;;;2.79;41.83;101596.06;4396754;32;34158;-76
2022/03/15 04:38:53;;;;;;;;;;;;;;;2.81;42.19;101596.84;4383899;32;33160;-76
2022/03/15 04:41:21;;;;;;;;;;;;;;;2.90;41.65;101603.53;4371295;32;32535;-76
2022/03/15 04:43:49;;;;;;;;;;;;;;;2.84;41.48;101599.34;4396635;32;35695;-76
2022/03/15 04:46:17;;;;;;;;;;;;;;;2.91;41.40;101605.25;4396216;32;34415;-76
2022/03/15 04:48:44;;;;;;;;;;;;;;;2.90;41.18;101590.41;4370785;32;34633;-76
2022/03/15 04:51:14;;;;;;;;;;;;;;;2.78;41.36;101601.34;4387010;32;33024;-76
2022/03/15 04:53:46;;;;;;;;;;;;;;;2.83;41.30;101597.66;4387304;32;35017;-76
2022/03/15 04:56:14;;;;;;;;;;;;;;;2.81;41.37;101606.50;4384353;32;34145;-76
2022/03/15 04:58:41;;;;;;;;;;;;;;;2.78;41.27;101604.81;4387050;32;34032;-76
2022/03/15 05:01:10;;;;;;;;;;;;;;;2.71;41.44;101607.72;4399790;32;33362;-76
2022/03/15 05:03:38;;;;;;;;;;;;;;;2.66;41.84;101614.03;4399765;32;35827;-76
2022/03/15 05:06:05;;;;;;;;;;;;;;;2.63;41.88;101606.25;4385787;32;35829;-76
2022/03/15 05:08:33;;;;;;;;;;;;;;;2.72;41.50;101605.94;4386287;32;35550;-76
2022/03/15 05:11:07;;;;;;;;;;;;;;;2.76;41.38;101611.06;4373056;32;33065;-76
2022/03/15 05:13:39;;;;;;;;;;;;;;;2.74;41.38;101613.72;4385051;32;35793;-76
2022/03/15 05:16:10;;;;;;;;;;;;;;;2.73;41.37;101616.37;4373535;32;33012;-76
2022/03/15 05:18:40;;;;;;;;;;;;;;;2.74;41.29;101621.59;4385998;32;34756;-76
2022/03/15 05:21:08;;;;;;;;;;;;;;;2.71;41.25;101622.63;4398332;32;34155;-76
2022/03/15 05:23:36;;;;;;;;;;;;;;;2.78;41.04;101611.84;4386844;32;35743;-76
2022/03/15 05:26:03;;;;;;;;;;;;;;;2.77;41.13;101615.41;4384717;32;34790;-76
2022/03/15 05:28:31;;;;;;;;;;;;;;;2.81;41.07;101611.75;4385782;32;34090;-76
2022/03/15 05:31:00;;;;;;;;;;;;;;;2.73;41.53;101611.12;4386871;32;34813;-76
2022/03/15 05:33:28;;;;;;;;;;;;;;;2.82;41.34;101606.44;4372505;32;34697;-76
2022/03/15 05:35:56;;;;;;;;;;;;;;;2.89;41.12;101610.59;4373665;32;35571;-76
2022/03/15 05:38:24;;;;;;;;;;;;;;;2.84;41.41;101609.87;4386134;32;31387;-76
2022/03/15 05:40:51;;;;;;;;;;;;;;;2.91;41.25;101610.50;4373050;32;34115;-76
2022/03/15 05:43:20;;;;;;;;;;;;;;;2.96;41.15;101606.81;4374143;32;33579;-76
2022/03/15 05:45:48;;;;;;;;;;;;;;;3.02;40.94;101609.25;4396955;32;34504;-76
2022/03/15 05:48:20;;;;;;;;;;;;;;;3.03;41.04;101612.75;4386546;32;33081;-76
2022/03/15 05:50:48;;;;;;;;;;;;;;;2.76;42.31;101611.06;4398759;32;34196;-76
2022/03/15 05:53:15;;;;;;;;;;;;;;;3.03;41.71;101613.59;4386173;32;34884;-76
2022/03/15 05:55:43;;;;;;;;;;;;;;;3.05;42.02;101614.38;4385807;32;35275;-76
2022/03/15 05:58:14;;;;;;;;;;;;;;;3.14;42.02;101608.81;4373021;32;32155;-76
2022/03/15 06:00:42;;;;;;;;;;;;;;;3.31;41.53;101600.34;4384989;32;34644;-76
2022/03/15 06:03:11;;;;;;;;;;;;;;;3.31;41.64;101605.59;4385368;32;33557;-76
2022/03/15 06:05:39;;;;;;;;;;;;;;;3.55;41.04;101602.06;4399543;32;34980;-76
2022/03/15 06:08:10;;;;;;;;;;;;;;;3.54;41.14;101600.34;4399050;32;33437;-76
2022/03/15 06:10:38;;;;;;;;;;;;;;;3.59;41.21;101601.88;4397205;32;34796;-77
2022/03/15 06:13:06;;;;;;;;;;;;;;;3.80;40.99;101600.22;4398809;32;35317;-77
2022/03/15 06:15:40;;;;;;;;;;;;;;;3.88;40.50;101599.00;4385438;32;34725;-76
2022/03/15 06:18:09;;;;;;;;;;;;;;;3.99;40.36;101601.25;4400337;32;32892;-76
2022/03/15 06:20:39;;;;;;;;;;;;;;;4.09;40.01;101603.47;4399056;32;33993;-76
2022/03/15 06:23:06;;;;;;;;;;;;;;;4.23;39.69;101603.75;4398749;32;35224;-76
2022/03/15 06:25:35;;;;;;;;;;;;;;;4.19;39.76;101598.66;4384071;32;34634;-77
2022/03/15 06:28:02;;;;;;;;;;;;;;;4.35;39.71;101605.91;4398195;32;32812;-77
2022/03/15 06:30:31;;;;;;;;;;;;;;;4.26;40.77;101615.97;4384609;32;33723;-77
2022/03/15 06:32:59;;;;;;;;;;;;;;;4.61;40.00;101610.13;4385878;32;34990;-77
2022/03/15 06:35:29;;;;;;;;;;;;;;;4.76;39.86;101620.03;4385929;32;32963;-77
2022/03/15 06:37:57;;;;;;;;;;;;;;;4.74;40.08;101612.19;4385957;32;33139;-77
2022/03/15 06:40:26;;;;;;;;;;;;;;;4.95;39.78;101616.56;4398333;32;35474;-77
2022/03/15 06:42:54;;;;;;;;;;;;;;;5.01;39.69;101612.81;4398141;32;35471;-77
2022/03/15 06:45:23;;;;;;;;;;;;;;;5.13;39.50;101613.13;4382246;32;33733;-77
2022/03/15 06:47:50;;;;;;;;;;;;;;;5.04;39.79;101605.63;4385715;32;33244;-76
2022/03/15 06:50:18;;;;;;;;;;;;;;;5.30;39.99;101601.84;4384677;32;33683;-77
2022/03/15 06:52:47;;;;;;;;;;;;;;;5.50;39.64;101605.31;4385943;32;35013;-77
2022/03/15 06:55:16;;;;;;;;;;;;;;;5.42;39.92;101602.16;4371603;32;33923;-79
2022/03/15 06:57:44;;;;;;;;;;;;;;;5.70;39.14;101594.72;4385152;32;32970;-78
2022/03/15 07:00:15;;;;;;;;;;;;;;;5.89;38.91;101588.53;4385043;32;33857;-78
2022/03/15 07:02:43;;;;;;;;;;;;;;;5.99;38.71;101581.91;4385303;32;36179;-81
2022/03/15 07:05:11;;;;;;;;;;;;;;;6.07;38.84;101585.00;4378069;32;35334;-78
2022/03/15 07:07:40;;;;;;;;;;;;;;;6.14;38.04;101577.69;4397209;32;34132;-77
2022/03/15 07:10:09;;;;;;;;;;;;;;;6.33;38.04;101571.41;4397599;32;33890;-80
2022/03/15 07:12:38;;;;;;;;;;;;;;;6.17;37.96;101577.50;4397521;32;33142;-79
2022/03/15 07:15:06;;;;;;;;;;;;;;;6.45;37.96;101570.78;4385133;32;34601;-78
2022/03/15 07:17:34;;;;;;;;;;;;;;;6.51;37.14;101570.50;4384048;32;32265;-78
2022/03/15 07:20:03;;;;;;;;;;;;;;;6.87;36.24;101563.38;4397877;32;33843;-78
2022/03/15 07:22:32;;;;;;;;;;;;;;;6.70;36.65;101570.47;4374101;32;36016;-78
2022/03/15 07:25:00;;;;;;;;;;;;;;;7.04;35.56;101575.72;4383027;32;34735;-77
2022/03/15 07:27:30;;;;;;;;;;;;;;;7.27;35.78;101567.47;4385378;32;32620;-78
2022/03/15 07:29:58;;;;;;;;;;;;;;;7.56;35.82;101566.75;4399213;32;33656;-78
2022/03/15 07:32:26;;;;;;;;;;;;;;;7.93;34.27;101567.31;4371277;32;33467;-78
2022/03/15 07:34:54;;;;;;;;;;;;;;;7.66;34.18;101570.62;4385228;32;33979;-78
2022/03/15 07:37:23;;;;;;;;;;;;;;;8.03;33.83;101568.50;4373128;32;33205;-78
2022/03/15 07:39:51;;;;;;;;;;;;;;;8.25;32.80;101569.06;4383686;32;34702;-79
2022/03/15 07:42:19;;;;;;;;;;;;;;;8.28;32.86;101573.34;4385712;32;35867;-79
2022/03/15 07:44:48;;;;;;;;;;;;;;;8.57;32.95;101574.22;4384923;32;34007;-79
2022/03/15 07:47:15;;;;;;;;;;;;;;;8.58;32.59;101578.59;4395556;32;32625;-79
2022/03/15 07:49:47;;;;;;;;;;;;;;;8.65;32.02;101577.28;4395251;32;33146;-79
2022/03/15 07:52:16;;;;;;;;;;;;;;;8.96;31.64;101571.00;4394925;32;35990;-79
2022/03/15 07:54:43;;;;;;;;;;;;;;;9.31;30.56;101567.97;4384915;32;35154;-79
2022/03/15 07:57:11;;;;;;;;;;;;;;;9.12;30.98;101569.16;4383956;32;33907;-84
2022/03/15 07:59:40;;;;;;;;;;;;;;;9.29;30.51;101569.88;4398606;32;34337;-78
2022/03/15 08:02:08;;;;;;;;;;;;;;;9.34;30.77;101569.56;4397098;32;34914;-78
2022/03/15 08:04:36;;;;;;;;;;;;;;;9.85;29.79;101566.34;4384477;32;34825;-78
2022/03/15 08:07:04;;;;;;;;;;;;;;;9.76;30.48;101565.13;4384612;32;33136;-79
2022/03/15 08:09:32;;;;;;;;;;;;;;;9.89;30.39;101566.03;4384593;32;33619;-79
2022/03/15 08:12:01;;;;;;;;;;;;;;;9.91;30.39;101565.97;4383941;32;35872;-79
2022/03/15 08:14:29;;;;;;;;;;;;;;;10.17;29.67;101566.03;4397741;32;34840;-79
2022/03/15 08:17:00;;;;;;;;;;;;;;;10.50;29.71;101568.28;4382907;32;34100;-80
2022/03/15 08:19:31;;;;;;;;;;;;;;;10.83;28.84;101560.69;4398140;32;34249;-79
2022/03/15 08:22:02;;;;;;;;;;;;;;;10.92;29.02;101560.94;4384427;32;34559;-80
2022/03/15 08:27:34;;;;;;;;;;;;;;;11.04;29.16;101556.59;4398211;32;33792;-84
2022/03/15 08:30:03;;;;;;;;;;;;;;;11.11;29.28;101549.91;4386055;32;34067;-83
2022/03/15 08:32:32;;;;;;;;;;;;;;;11.23;28.64;101549.06;4385365;32;34478;-82
2022/03/15 08:35:03;;;;;;;;;;;;;;;11.22;29.16;101547.34;4399325;32;34397;-84
2022/03/15 08:37:30;;;;;;;;;;;;;;;11.31;28.91;101547.56;4383696;32;33450;-84
2022/03/15 08:39:59;;;;;;;;;;;;;;;11.46;28.72;101543.84;4397981;32;34207;-85
2022/03/15 08:42:26;;;;;;;;;;;;;;;11.53;28.49;101543.28;4386158;32;34835;-85
2022/03/15 08:44:54;;;;;;;;;;;;;;;11.69;28.84;101527.09;4385885;32;35039;-84
2022/03/15 08:47:21;;;;;;;;;;;;;;;11.82;28.06;101539.44;4399923;32;33033;-84
2022/03/15 08:49:48;;;;;;;;;;;;;;;11.65;28.36;101537.09;4384293;32;33837;-83
2022/03/15 08:52:17;;;;;;;;;;;;;;;11.70;27.90;101526.13;4399150;32;36121;-84
2022/03/15 08:54:44;;;;;;;;;;;;;;;11.99;27.35;101509.72;4385038;32;34380;-82
2022/03/15 08:57:11;;;;;;;;;;;;;;;12.18;26.82;101511.91;4373143;32;33882;-80
2022/03/15 08:59:39;;;;;;;;;;;;;;;12.31;26.37;101512.69;4384651;32;33846;-84
2022/03/15 09:02:08;;;;;;;;;;;;;;;12.63;26.56;101512.00;4373535;32;35214;-82
2022/03/15 09:04:41;;;;;;;;;;;;;;;12.51;25.67;101506.72;4374536;32;33035;-87
2022/03/15 09:07:10;;;;;;;;;;;;;;;12.80;25.03;101508.03;4399938;32;33560;-80
2022/03/15 09:09:37;;;;;;;;;;;;;;;12.59;26.10;101499.84;4399197;32;34561;-83
2022/03/15 09:12:05;;;;;;;;;;;;;;;12.95;24.83;101494.37;4386532;32;36551;-81
2022/03/15 09:14:33;;;;;;;;;;;;;;;12.86;26.20;101494.22;4386441;32;34432;-83
2022/03/15 09:17:00;;;;;;;;;;;;;;;13.42;24.79;101493.34;4373417;32;31699;-84
2022/03/15 09:19:27;;;;;;;;;;;;;;;13.44;24.99;101484.25;4397699;32;34156;-83
2022/03/15 09:21:56;;;;;;;;;;;;;;;13.09;24.46;101482.62;4385605;32;35402;-86
2022/03/15 09:24:23;;;;;;;;;;;;;;;13.39;24.58;101477.56;4397956;32;34879;-87
2022/03/15 09:26:51;;;;;;;;;;;;;;;13.51;24.24;101472.06;4395045;32;33393;-83
2022/03/15 09:29:19;;;;;;;;;;;;;;;13.74;24.08;101465.75;4398392;32;34681;-82
2022/03/15 09:31:48;;;;;;;;;;;;;;;13.79;23.67;101457.34;4385588;32;35021;-80
2022/03/15 09:34:18;;;;;;;;;;;;;;;13.81;23.81;101461.59;4399454;32;35601;-80
2022/03/15 09:36:46;;;;;;;;;;;;;;;13.88;24.34;101452.06;4398838;32;33130;-81
2022/03/15 09:39:14;;;;;;;;;;;;;;;14.21;23.90;101453.84;4399849;32;34536;-83
2022/03/15 09:41:42;;;;;;;;;;;;;;;14.47;23.21;101456.87;4385106;32;35486;-83
2022/03/15 09:44:09;;;;;;;;;;;;;;;14.53;23.12;101442.12;4399673;32;34571;-80
2022/03/15 09:46:38;;;;;;;;;;;;;;;14.80;22.88;101445.12;4399289;32;34263;-86
2022/03/15 09:49:24;;;;;;;;;;;;;;;14.97;22.91;101445.41;4387431;32;34806;-87
2022/03/15 09:51:53;;;;;;;;;;;;;;;14.82;22.38;101443.16;4396256;32;35138;-84
2022/03/15 09:54:22;;;;;;;;;;;;;;;14.54;22.74;101442.00;4398540;32;34649;-83
2022/03/15 09:56:54;;;;;;;;;;;;;;;14.67;22.54;101447.19;4398390;32;33596;-81
2022/03/15 09:59:22;;;;;;;;;;;;;;;14.80;23.96;101443.31;4400007;32;33866;-85
2022/03/15 10:01:51;;;;;;;;;;;;;;;14.98;22.54;101435.50;4385801;32;34636;-81
2022/03/15 10:04:20;;;;;;;;;;;;;;;15.19;22.16;101439.00;4399169;32;34035;-86
2022/03/15 10:06:50;;;;;;;;;;;;;;;15.01;22.43;101435.28;4399268;32;33005;-84
2022/03/15 10:09:17;;;;;;;;;;;;;;;14.84;22.72;101436.69;4385448;32;34514;-85
2022/03/15 10:11:47;;;;;;;;;;;;;;;14.73;23.30;101441.31;4398727;32;35439;-80
2022/03/15 10:14:17;;;;;;;;;;;;;;;14.75;22.93;101437.50;4399154;32;35216;-83
2022/03/15 10:16:45;;;;;;;;;;;;;;;15.04;22.99;101438.50;4397593;32;32917;-83
2022/03/15 10:19:13;;;;;;;;;;;;;;;15.19;23.29;101430.97;4385619;32;33438;-83
2022/03/15 10:21:48;;;;;;;;;;;;;;;15.41;22.40;101436.19;4399615;32;35195;-86
2022/03/15 10:24:23;;;;;;;;;;;;;;;15.51;22.69;101426.34;4398099;32;34315;-87
2022/03/15 10:26:51;;;;;;;;;;;;;;;15.55;23.17;101423.25;4411448;32;33051;-86
2022/03/15 10:29:20;;;;;;;;;;;;;;;15.74;22.50;101425.12;4400871;32;34314;-85
2022/03/15 10:31:47;;;;;;;;;;;;;;;15.33;22.96;101422.59;4414032;32;35753;-86
2022/03/15 10:34:15;;;;;;;;;;;;;;;14.99;23.26;101416.63;4387592;32;34569;-84
2022/03/15 10:36:44;;;;;;;;;;;;;;;15.23;23.49;101406.44;4400272;32;34169;-84
2022/03/15 10:39:11;;;;;;;;;;;;;;;15.83;22.83;101398.31;4400352;32;33904;-84
2022/03/15 10:42:07;;;;;;;;;;;;;;;15.77;22.65;101403.41;4413627;32;35569;-85
2022/03/15 10:44:38;;;;;;;;;;;;;;;15.56;22.68;101383.84;4413117;32;34334;-86
2022/03/15 10:47:12;;;;;;;;;;;;;;;15.66;22.63;101385.56;4387860;32;34065;-87
2022/03/15 10:49:56;;;;;;;;;;;;;;;15.84;22.19;101378.53;4401015;32;34676;-83
2022/03/15 10:52:34;;;;;;;;;;;;;;;15.78;22.34;101378.25;4401167;32;34581;-83
2022/03/15 10:55:17;;;;;;;;;;;;;;;15.88;22.10;101371.88;4400201;32;35026;-82
2022/03/15 10:57:44;;;;;;;;;;;;;;;15.84;22.08;101366.94;4400049;32;33455;-82
2022/03/15 11:00:12;;;;;;;;;;;;;;;15.76;22.15;101364.12;4399345;32;32563;-84
2022/03/15 11:02:43;;;;;;;;;;;;;;;16.15;21.82;101353.25;4413846;32;35878;-83
2022/03/15 11:05:27;;;;;;;;;;;;;;;16.14;21.66;101340.00;4400707;32;35738;-83
2022/03/15 11:07:55;;;;;;;;;;;;;;;16.06;21.93;101340.66;4399882;32;33930;-86
2022/03/15 11:10:23;;;;;;;;;;;;;;;16.02;22.21;101330.34;4398758;32;34340;-84
2022/03/15 11:13:12;;;;;;;;;;;;;;;16.42;21.54;101336.44;4412878;32;34972;-84
2022/03/15 11:15:42;;;;;;;;;;;;;;;16.37;21.48;101327.97;4413677;32;34672;-86
2022/03/15 11:18:10;;;;;;;;;;;;;;;16.56;21.20;101303.75;4387502;32;31486;-85
2022/03/15 11:20:41;;;;;;;;;;;;;;;16.19;22.01;101305.47;4389474;32;32381;-84
2022/03/15 11:23:13;;;;;;;;;;;;;;;16.51;21.54;101297.97;4387039;32;33934;-84
2022/03/15 11:25:46;;;;;;;;;;;;;;;16.58;21.16;101297.22;4397121;32;34788;-84
2022/03/15 11:28:15;;;;;;;;;;;;;;;16.79;20.37;101289.78;4399334;32;32851;-84
2022/03/15 11:30:42;;;;;;;;;;;;;;;16.90;20.73;101286.06;4385070;32;33781;-87
2022/03/15 11:33:10;;;;;;;;;;;;;;;16.98;20.07;101278.13;4399009;32;36175;-89
2022/03/15 11:35:39;;;;;;;;;;;;;;;17.27;20.87;101271.56;4385161;32;34485;-87
2022/03/15 11:38:08;;;;;;;;;;;;;;;17.73;20.22;101250.72;4397535;32;30933;-87
2022/03/15 11:40:37;;;;;;;;;;;;;;;17.88;20.17;101251.84;4397490;32;32073;-84
2022/03/15 11:43:06;;;;;;;;;;;;;;;18.34;18.90;101240.75;4398986;32;35989;-82
2022/03/15 11:45:36;;;;;;;;;;;;;;;18.24;18.79;101233.78;4398719;32;35053;-84
2022/03/15 11:48:22;;;;;;;;;;;;;;;18.24;18.62;101239.16;4399055;32;33449;-83
2022/03/15 11:51:01;;;;;;;;;;;;;;;18.20;18.45;101230.53;4398959;32;33814;-84
2022/03/15 11:53:45;;;;;;;;;;;;;;;17.78;19.14;101228.72;4385372;32;35801;-84
2022/03/15 11:56:25;;;;;;;;;;;;;;;17.80;19.81;101207.84;4398581;32;35382;-82
2022/03/15 11:58:55;;;;;;;;;;;;;;;18.16;19.05;101204.09;4384041;32;34658;-82
2022/03/15 12:01:23;;;;;;;;;;;;;;;18.55;18.13;101191.88;4399403;32;34113;-82
2022/03/15 12:03:51;;;;;;;;;;;;;;;18.47;18.72;101186.44;4400455;32;35949;-82
2022/03/15 12:06:30;;;;;;;;;;;;;;;18.45;19.46;101185.75;4386025;32;33839;-84
2022/03/15 12:09:03;;;;;;;;;;;;;;;18.46;18.54;101179.34;4398613;32;33229;-83
2022/03/15 12:11:33;;;;;;;;;;;;;;;18.53;18.69;101172.31;4387128;32;34350;-83
2022/03/15 12:14:13;;;;;;;;;;;;;;;18.56;18.73;101158.50;4386503;32;34555;-83
2022/03/15 12:16:41;;;;;;;;;;;;;;;18.11;18.66;101164.16;4387806;32;34041;-84
2022/03/15 12:19:30;;;;;;;;;;;;;;;18.62;18.78;101158.69;4387491;32;33251;-84
2022/03/15 12:22:00;;;;;;;;;;;;;;;19.15;17.91;101151.09;4396873;32;32759;-86
2022/03/15 12:24:41;;;;;;;;;;;;;;;19.61;17.56;101152.31;4399896;32;36020;-83
2022/03/15 12:27:19;;;;;;;;;;;;;;;20.07;18.22;101138.97;4390856;32;34088;-86
2022/03/15 12:29:53;;;;;;;;;;;;;;;20.59;17.21;101140.16;4376708;32;31724;-84
2022/03/15 12:32:22;;;;;;;;;;;;;;;21.64;16.36;101133.88;4399427;32;34754;-86
2022/03/15 12:34:51;;;;;;;;;;;;;;;21.68;15.65;101135.22;4381880;32;34230;-87
2022/03/15 12:37:30;;;;;;;;;;;;;;;21.18;16.64;101134.91;4400418;32;34187;-87
2022/03/15 12:39:58;;;;;;;;;;;;;;;21.34;16.84;101128.56;4408681;32;33826;-85
2022/03/15 12:42:26;;;;;;;;;;;;;;;21.17;17.19;101127.81;4396638;32;32647;-86
2022/03/15 12:45:00;;;;;;;;;;;;;;;21.15;16.86;101126.34;4394129;32;34949;-84
2022/03/15 12:47:29;;;;;;;;;;;;;;;20.82;17.51;101120.25;4392632;32;34367;-83
2022/03/15 12:50:15;;;;;;;;;;;;;;;20.50;17.72;101116.88;4388669;32;33670;-83
2022/03/15 12:52:56;;;;;;;;;;;;;;;20.44;17.89;101111.31;4403414;32;35242;-84
2022/03/15 12:55:23;;;;;;;;;;;;;;;20.70;17.50;101099.19;4388879;32;35398;-83
2022/03/15 12:57:56;;;;;;;;;;;;;;;20.62;17.29;101085.72;4404840;32;35160;-85